TimeCEST,TemperatureF,Dew PointF,Humidity,Sea Level PressureIn,VisibilityMPH,Wind Direction,Wind SpeedMPH,Gust SpeedMPH,PrecipitationIn,Events,Conditions,WindDirDegrees,DateUTC
12:15 AM,69.8,62.6,78,30.12,6.2,SE,13.8,-,N/A,,Scattered Clouds,140,2012-10-05 22:15:00
12:45 AM,71.6,64.4,78,30.12,6.2,SE,10.4,-,N/A,,Scattered Clouds,140,2012-10-05 22:45:00
12:55 AM,71.6,64.4,78,30.12,6.2,SE,10.4,-,N/A,,Scattered Clouds,140,2012-10-05 22:55:00
1:15 AM,69.8,64.4,83,30.09,6.2,SE,11.5,-,N/A,,Scattered Clouds,140,2012-10-05 23:15:00
1:45 AM,69.8,62.6,78,30.12,6.2,SSE,13.8,-,N/A,,Partly Cloudy,150,2012-10-05 23:45:00
1:55 AM,69.8,62.6,78,30.12,6.2,SSE,13.8,-,N/A,,Partly Cloudy,150,2012-10-05 23:55:00
2:00 AM,70,63,73,30.13,12,SSE,13.8,,,,Scattered Clouds,150,2012-10-06 00:00:00
2:15 AM,69.8,62.6,78,30.12,6.2,SSE,13.8,-,N/A,,Partly Cloudy,150,2012-10-06 00:15:00
2:45 AM,69.8,62.6,78,30.09,6.2,SE,11.5,-,N/A,,Partly Cloudy,140,2012-10-06 00:45:00
2:55 AM,69.8,62.6,78,30.09,6.2,SE,11.5,-,N/A,,Partly Cloudy,140,2012-10-06 00:55:00
3:15 AM,69.8,62.6,78,30.09,6.2,SE,11.5,-,N/A,,Partly Cloudy,130,2012-10-06 01:15:00
3:45 AM,69.8,62.6,78,30.09,6.2,SE,9.2,-,N/A,,Partly Cloudy,140,2012-10-06 01:45:00
3:55 AM,69.8,62.6,78,30.09,6.2,SE,9.2,-,N/A,,Partly Cloudy,140,2012-10-06 01:55:00
4:15 AM,69.8,62.6,78,30.09,6.2,SE,9.2,-,N/A,,Partly Cloudy,140,2012-10-06 02:15:00
4:45 AM,69.8,62.6,78,30.09,6.2,SE,8.1,-,N/A,,Partly Cloudy,130,2012-10-06 02:45:00
4:55 AM,69.8,62.6,78,30.09,6.2,SE,8.1,-,N/A,,Partly Cloudy,130,2012-10-06 02:55:00
5:00 AM,70,63,73,30.10,12,SE,8.1,,,,Scattered Clouds,130,2012-10-06 03:00:00
5:15 AM,69.8,62.6,78,30.09,6.2,SE,6.9,-,N/A,,Partly Cloudy,130,2012-10-06 03:15:00
5:45 AM,69.8,62.6,78,30.09,6.2,SE,8.1,-,N/A,,Partly Cloudy,130,2012-10-06 03:45:00
5:55 AM,69.8,62.6,78,30.09,6.2,SE,8.1,-,N/A,,Partly Cloudy,130,2012-10-06 03:55:00
6:15 AM,66.2,60.8,83,30.09,6.2,NE,3.5,-,N/A,,Partly Cloudy,40,2012-10-06 04:15:00
6:45 AM,64.4,59.0,83,30.09,6.2,NE,2.3,-,N/A,,Partly Cloudy,40,2012-10-06 04:45:00
6:55 AM,64.4,59.0,83,30.09,6.2,NE,2.3,-,N/A,,Partly Cloudy,40,2012-10-06 04:55:00
7:15 AM,62.6,55.4,77,30.09,6.2,NE,2.3,-,N/A,,Partly Cloudy,40,2012-10-06 05:15:00
7:45 AM,60.8,55.4,82,30.09,6.2,Calm,Calm,-,N/A,,Partly Cloudy,0,2012-10-06 05:45:00
7:55 AM,60.8,55.4,82,30.09,6.2,Calm,Calm,-,N/A,,Partly Cloudy,0,2012-10-06 05:55:00
8:00 AM,61,55,74,30.12,9,Calm,Calm,,,,Scattered Clouds,,2012-10-06 06:00:00
8:15 AM,60.8,55.4,82,30.12,6.2,WNW,2.3,-,N/A,,Partly Cloudy,300,2012-10-06 06:15:00
8:45 AM,62.6,57.2,82,30.12,6.2,Calm,Calm,-,N/A,,Partly Cloudy,0,2012-10-06 06:45:00
8:55 AM,62.6,57.2,82,30.12,6.2,Calm,Calm,-,N/A,,Partly Cloudy,0,2012-10-06 06:55:00
9:15 AM,68.0,59.0,73,30.12,6.2,East,3.5,-,N/A,,Partly Cloudy,90,2012-10-06 07:15:00
9:45 AM,73.4,62.6,69,30.12,6.2,SE,9.2,-,N/A,,Partly Cloudy,130,2012-10-06 07:45:00
9:55 AM,73.4,62.6,69,30.12,6.2,SE,9.2,-,N/A,,Partly Cloudy,130,2012-10-06 07:55:00
10:15 AM,73.4,60.8,65,30.12,6.2,SSE,10.4,-,N/A,,Partly Cloudy,150,2012-10-06 08:15:00
10:45 AM,75.2,62.6,65,30.12,6.2,SSE,13.8,-,N/A,,Partly Cloudy,150,2012-10-06 08:45:00
10:55 AM,75.2,62.6,65,30.12,6.2,SSE,13.8,-,N/A,,Partly Cloudy,150,2012-10-06 08:55:00
11:00 AM,75,63,57,30.15,12,SSE,13.8,,,,Scattered Clouds,150,2012-10-06 09:00:00
11:15 AM,77.0,64.4,65,30.15,6.2,SSE,13.8,-,N/A,,Partly Cloudy,150,2012-10-06 09:15:00
11:45 AM,77.0,64.4,65,30.15,6.2,SSE,15.0,-,N/A,,Partly Cloudy,150,2012-10-06 09:45:00
11:55 AM,77.0,64.4,65,30.15,6.2,SSE,15.0,-,N/A,,Partly Cloudy,150,2012-10-06 09:55:00
12:15 PM,77.0,64.4,65,30.12,6.2,SE,15.0,-,N/A,,Partly Cloudy,140,2012-10-06 10:15:00
12:45 PM,77.0,64.4,65,30.12,6.2,SSE,13.8,-,N/A,,Partly Cloudy,150,2012-10-06 10:45:00
12:55 PM,77.0,64.4,65,30.12,6.2,SSE,13.8,-,N/A,,Partly Cloudy,150,2012-10-06 10:55:00
1:15 PM,77.0,66.2,69,30.12,6.2,SSE,15.0,-,N/A,,Partly Cloudy,150,2012-10-06 11:15:00
1:45 PM,77.0,66.2,69,30.12,6.2,SE,13.8,-,N/A,,Partly Cloudy,140,2012-10-06 11:45:00
1:55 PM,77.0,66.2,69,30.12,6.2,SE,13.8,-,N/A,,Partly Cloudy,140,2012-10-06 11:55:00
2:00 PM,77,67,63,30.13,12,SE,13.8,,,,Scattered Clouds,140,2012-10-06 12:00:00
2:15 PM,77.0,66.2,69,30.12,6.2,SSE,15.0,-,N/A,,Partly Cloudy,150,2012-10-06 12:15:00
2:45 PM,77.0,66.2,69,30.09,6.2,SE,13.8,-,N/A,,Partly Cloudy,130,2012-10-06 12:45:00
2:55 PM,77.0,66.2,69,30.09,6.2,SE,13.8,-,N/A,,Partly Cloudy,130,2012-10-06 12:55:00
3:15 PM,77.0,66.2,69,30.09,6.2,SE,16.1,-,N/A,,Partly Cloudy,130,2012-10-06 13:15:00
3:45 PM,77.0,66.2,69,30.09,6.2,ESE,15.0,-,N/A,,Partly Cloudy,120,2012-10-06 13:45:00
3:55 PM,77.0,66.2,69,30.09,6.2,ESE,15.0,-,N/A,,Partly Cloudy,120,2012-10-06 13:55:00
4:15 PM,77.0,66.2,69,30.09,6.2,SE,15.0,-,N/A,,Partly Cloudy,130,2012-10-06 14:15:00
4:45 PM,75.2,66.2,73,30.09,-9999.0,SE,13.8,-,N/A,,Clear,130,2012-10-06 14:45:00
4:55 PM,75.2,66.2,73,30.09,-9999.0,SE,13.8,-,N/A,,Clear,130,2012-10-06 14:55:00
5:00 PM,76,67,66,30.10,12,SE,13.8,,,,,130,2012-10-06 15:00:00
5:15 PM,75.2,66.2,73,30.09,-9999.0,SE,11.5,-,N/A,,Clear,130,2012-10-06 15:15:00
5:45 PM,75.2,66.2,73,30.09,6.2,SE,15.0,-,N/A,,Partly Cloudy,140,2012-10-06 15:45:00
5:55 PM,75.2,66.2,73,30.09,6.2,SE,15.0,-,N/A,,Partly Cloudy,140,2012-10-06 15:55:00
6:15 PM,73.4,66.2,78,30.09,6.2,SE,11.5,-,N/A,,Partly Cloudy,140,2012-10-06 16:15:00
6:45 PM,73.4,64.4,73,30.09,6.2,SE,10.4,-,N/A,,Partly Cloudy,140,2012-10-06 16:45:00
6:55 PM,73.4,64.4,73,30.09,6.2,SE,10.4,-,N/A,,Partly Cloudy,140,2012-10-06 16:55:00
7:15 PM,71.6,64.4,78,30.09,6.2,SE,6.9,-,N/A,,Partly Cloudy,140,2012-10-06 17:15:00
7:45 PM,71.6,64.4,78,30.09,6.2,SE,6.9,-,N/A,,Partly Cloudy,140,2012-10-06 17:45:00
7:55 PM,71.6,64.4,78,30.09,6.2,SE,6.9,-,N/A,,Partly Cloudy,140,2012-10-06 17:55:00
8:00 PM,72,64,69,30.12,9,SE,6.9,,,,Scattered Clouds,140,2012-10-06 18:00:00
8:15 PM,71.6,64.4,78,30.09,6.2,SE,5.8,-,N/A,,Partly Cloudy,130,2012-10-06 18:15:00
8:45 PM,71.6,62.6,73,30.12,6.2,SE,4.6,-,N/A,,Partly Cloudy,130,2012-10-06 18:45:00
8:55 PM,71.6,62.6,73,30.12,6.2,SE,4.6,-,N/A,,Partly Cloudy,130,2012-10-06 18:55:00
9:15 PM,71.6,64.4,78,30.12,6.2,SE,4.6,-,N/A,,Partly Cloudy,130,2012-10-06 19:15:00
9:45 PM,69.8,64.4,83,30.12,6.2,ESE,2.3,-,N/A,,Partly Cloudy,120,2012-10-06 19:45:00
9:55 PM,69.8,64.4,83,30.12,6.2,ESE,2.3,-,N/A,,Partly Cloudy,120,2012-10-06 19:55:00
10:15 PM,69.8,64.4,83,30.12,6.2,East,2.3,-,N/A,,Partly Cloudy,80,2012-10-06 20:15:00
10:45 PM,69.8,62.6,78,30.12,6.2,NNE,1.2,-,N/A,,Scattered Clouds,20,2012-10-06 20:45:00
10:55 PM,69.8,62.6,78,30.12,6.2,NNE,1.2,-,N/A,,Scattered Clouds,20,2012-10-06 20:55:00
11:00 PM,69,63,74,30.13,6,NNE,1.2,,,,Partly Cloudy,20,2012-10-06 21:00:00
11:15 PM,69.8,62.6,78,30.12,6.2,NNE,2.3,-,N/A,,Scattered Clouds,20,2012-10-06 21:15:00
11:45 PM,68.0,62.6,83,30.12,6.2,NNW,1.2,-,N/A,,Partly Cloudy,340,2012-10-06 21:45:00
11:55 PM,68.0,62.6,83,30.12,6.2,NNW,1.2,-,N/A,,Partly Cloudy,340,2012-10-06 21:55:00